sensor_id;sensor_type;location;lat;lon;timestamp;pressure;altitude;pressure_sealevel;temperature;humidity
69980;BME280;57318;56.232;43.944;2022-09-01T00:01:32;98214.38;;;13.85;62.33
69980;BME280;57318;56.232;43.944;2022-09-01T00:03:58;98233.06;;;13.77;62.34
69980;BME280;57318;56.232;43.944;2022-09-01T00:06:29;98224.09;;;13.69;62.24
69980;BME280;57318;56.232;43.944;2022-09-01T00:09:01;98225.13;;;13.60;62.79
69980;BME280;57318;56.232;43.944;2022-09-01T00:11:28;98222.16;;;13.55;62.02
69980;BME280;57318;56.232;43.944;2022-09-01T00:13:55;98216.16;;;13.45;62.28
69980;BME280;57318;56.232;43.944;2022-09-01T00:16:21;98231.19;;;13.29;63.12
69980;BME280;57318;56.232;43.944;2022-09-01T00:18:49;98235.88;;;13.19;63.49
69980;BME280;57318;56.232;43.944;2022-09-01T00:21:22;98233.19;;;13.11;63.70
69980;BME280;57318;56.232;43.944;2022-09-01T00:23:48;98243.72;;;13.04;63.94
69980;BME280;57318;56.232;43.944;2022-09-01T00:26:14;98243.56;;;12.97;64.43
69980;BME280;57318;56.232;43.944;2022-09-01T00:28:39;98246.25;;;12.89;63.77
69980;BME280;57318;56.232;43.944;2022-09-01T00:31:06;98252.22;;;12.83;63.82
69980;BME280;57318;56.232;43.944;2022-09-01T00:33:33;98234.41;;;12.84;63.38
69980;BME280;57318;56.232;43.944;2022-09-01T00:36:00;98250.56;;;12.90;62.95
69980;BME280;57318;56.232;43.944;2022-09-01T00:38:26;98247.38;;;12.95;62.76
69980;BME280;57318;56.232;43.944;2022-09-01T00:40:52;98258.22;;;12.93;62.88
69980;BME280;57318;56.232;43.944;2022-09-01T00:43:23;98255.91;;;12.98;62.94
69980;BME280;57318;56.232;43.944;2022-09-01T00:46:10;98256.88;;;13.06;62.69
69980;BME280;57318;56.232;43.944;2022-09-01T00:48:38;98255.56;;;13.10;62.84
69980;BME280;57318;56.232;43.944;2022-09-01T00:51:05;98262.38;;;13.12;62.42
69980;BME280;57318;56.232;43.944;2022-09-01T00:53:33;98255.88;;;13.15;62.80
69980;BME280;57318;56.232;43.944;2022-09-01T00:56:00;98257.56;;;13.16;63.19
69980;BME280;57318;56.232;43.944;2022-09-01T00:58:26;98258.38;;;13.16;63.32
69980;BME280;57318;56.232;43.944;2022-09-01T01:00:52;98254.72;;;13.17;63.39
69980;BME280;57318;56.232;43.944;2022-09-01T01:03:18;98260.38;;;13.14;63.75
69980;BME280;57318;56.232;43.944;2022-09-01T01:05:50;98252.22;;;13.16;63.92
69980;BME280;57318;56.232;43.944;2022-09-01T01:08:31;98256.88;;;13.14;64.26
69980;BME280;57318;56.232;43.944;2022-09-01T01:11:12;98261.88;;;13.09;64.29
69980;BME280;57318;56.232;43.944;2022-09-01T01:16:25;98263.91;;;12.98;64.59
69980;BME280;57318;56.232;43.944;2022-09-01T01:18:51;98256.91;;;12.89;65.16
69980;BME280;57318;56.232;43.944;2022-09-01T01:21:46;98250.56;;;12.74;65.61
69980;BME280;57318;56.232;43.944;2022-09-01T01:24:33;98261.88;;;12.59;65.92
69980;BME280;57318;56.232;43.944;2022-09-01T01:26:59;98257.69;;;12.49;66.08
69980;BME280;57318;56.232;43.944;2022-09-01T01:29:35;98267.50;;;12.40;66.56
69980;BME280;57318;56.232;43.944;2022-09-01T01:32:04;98263.84;;;12.33;67.10
69980;BME280;57318;56.232;43.944;2022-09-01T01:34:36;98264.66;;;12.25;67.26
69980;BME280;57318;56.232;43.944;2022-09-01T01:37:03;98259.16;;;12.18;67.38
69980;BME280;57318;56.232;43.944;2022-09-01T01:39:29;98270.28;;;12.14;67.41
69980;BME280;57318;56.232;43.944;2022-09-01T01:41:56;98256.75;;;12.07;67.79
69980;BME280;57318;56.232;43.944;2022-09-01T01:44:24;98266.91;;;12.03;68.37
69980;BME280;57318;56.232;43.944;2022-09-01T01:46:54;98261.06;;;12.00;68.33
69980;BME280;57318;56.232;43.944;2022-09-01T01:49:24;98270.19;;;11.97;68.76
69980;BME280;57318;56.232;43.944;2022-09-01T01:51:52;98270.53;;;11.94;68.67
69980;BME280;57318;56.232;43.944;2022-09-01T01:54:23;98270.97;;;11.89;68.77
69980;BME280;57318;56.232;43.944;2022-09-01T01:56:51;98263.78;;;11.82;68.99
69980;BME280;57318;56.232;43.944;2022-09-01T01:59:17;98269.25;;;11.80;69.07
69980;BME280;57318;56.232;43.944;2022-09-01T02:01:44;98272.25;;;11.77;68.91
69980;BME280;57318;56.232;43.944;2022-09-01T02:04:16;98276.53;;;11.70;69.19
69980;BME280;57318;56.232;43.944;2022-09-01T02:06:43;98270.38;;;11.69;69.95
69980;BME280;57318;56.232;43.944;2022-09-01T02:09:14;98271.38;;;11.68;70.27
69980;BME280;57318;56.232;43.944;2022-09-01T02:11:40;98278.81;;;11.65;70.19
69980;BME280;57318;56.232;43.944;2022-09-01T02:14:08;98271.34;;;11.60;70.32
69980;BME280;57318;56.232;43.944;2022-09-01T02:16:35;98277.81;;;11.58;70.55
69980;BME280;57318;56.232;43.944;2022-09-01T02:19:01;98275.63;;;11.53;70.27
69980;BME280;57318;56.232;43.944;2022-09-01T02:21:28;98276.91;;;11.49;70.23
69980;BME280;57318;56.232;43.944;2022-09-01T02:23:59;98280.13;;;11.52;70.42
69980;BME280;57318;56.232;43.944;2022-09-01T02:26:52;98278.75;;;11.48;70.54
69980;BME280;57318;56.232;43.944;2022-09-01T02:29:22;98279.06;;;11.45;70.59
69980;BME280;57318;56.232;43.944;2022-09-01T02:31:52;98280.75;;;11.46;70.49
69980;BME280;57318;56.232;43.944;2022-09-01T02:34:19;98273.06;;;11.43;70.31
69980;BME280;57318;56.232;43.944;2022-09-01T02:36:47;98274.06;;;11.42;70.13
69980;BME280;57318;56.232;43.944;2022-09-01T02:39:19;98272.38;;;11.41;70.25
69980;BME280;57318;56.232;43.944;2022-09-01T02:41:45;98268.22;;;11.38;69.96
69980;BME280;57318;56.232;43.944;2022-09-01T02:44:11;98280.66;;;11.38;69.63
69980;BME280;57318;56.232;43.944;2022-09-01T02:46:44;98274.06;;;11.42;69.31
69980;BME280;57318;56.232;43.944;2022-09-01T02:49:19;98279.38;;;11.42;69.21
69980;BME280;57318;56.232;43.944;2022-09-01T02:51:50;98277.84;;;11.40;68.88
69980;BME280;57318;56.232;43.944;2022-09-01T02:54:19;98281.38;;;11.40;68.39
69980;BME280;57318;56.232;43.944;2022-09-01T02:56:49;98283.56;;;11.45;68.48
69980;BME280;57318;56.232;43.944;2022-09-01T02:59:21;98285.22;;;11.46;68.63
69980;BME280;57318;56.232;43.944;2022-09-01T03:01:52;98284.06;;;11.48;68.39
69980;BME280;57318;56.232;43.944;2022-09-01T03:04:20;98283.41;;;11.46;68.61
69980;BME280;57318;56.232;43.944;2022-09-01T03:06:46;98293.56;;;11.51;68.85
69980;BME280;57318;56.232;43.944;2022-09-01T03:09:15;98296.22;;;11.51;69.25
69980;BME280;57318;56.232;43.944;2022-09-01T03:11:43;98299.41;;;11.54;69.14
69980;BME280;57318;56.232;43.944;2022-09-01T03:14:09;98298.28;;;11.57;69.40
69980;BME280;57318;56.232;43.944;2022-09-01T03:16:36;98300.31;;;11.63;69.81
69980;BME280;57318;56.232;43.944;2022-09-01T03:19:04;98295.03;;;11.71;69.62
69980;BME280;57318;56.232;43.944;2022-09-01T03:21:34;98309.16;;;11.72;69.35
69980;BME280;57318;56.232;43.944;2022-09-01T03:24:01;98310.66;;;11.74;68.95
69980;BME280;57318;56.232;43.944;2022-09-01T03:26:28;98311.81;;;11.72;68.95
69980;BME280;57318;56.232;43.944;2022-09-01T03:28:55;98291.50;;;11.71;68.81
69980;BME280;57318;56.232;43.944;2022-09-01T03:31:21;98303.78;;;11.64;68.79
69980;BME280;57318;56.232;43.944;2022-09-01T03:33:47;98307.44;;;11.63;69.18
69980;BME280;57318;56.232;43.944;2022-09-01T03:36:13;98309.25;;;11.62;69.24
69980;BME280;57318;56.232;43.944;2022-09-01T03:38:45;98309.06;;;11.55;68.47
69980;BME280;57318;56.232;43.944;2022-09-01T03:41:14;98302.38;;;11.51;68.70
69980;BME280;57318;56.232;43.944;2022-09-01T03:43:41;98305.34;;;11.48;68.52
69980;BME280;57318;56.232;43.944;2022-09-01T03:46:07;98310.16;;;11.45;68.73
69980;BME280;57318;56.232;43.944;2022-09-01T03:48:35;98323.63;;;11.43;68.33
69980;BME280;57318;56.232;43.944;2022-09-01T03:51:01;98306.81;;;11.43;68.51
69980;BME280;57318;56.232;43.944;2022-09-01T03:53:29;98305.00;;;11.43;67.98
69980;BME280;57318;56.232;43.944;2022-09-01T03:55:57;98314.63;;;11.44;68.03
69980;BME280;57318;56.232;43.944;2022-09-01T03:58:24;98321.63;;;11.45;68.06
69980;BME280;57318;56.232;43.944;2022-09-01T04:00:52;98316.31;;;11.45;67.13
69980;BME280;57318;56.232;43.944;2022-09-01T04:03:24;98311.44;;;11.41;67.02
69980;BME280;57318;56.232;43.944;2022-09-01T04:05:51;98316.63;;;11.42;67.66
69980;BME280;57318;56.232;43.944;2022-09-01T04:08:19;98319.94;;;11.44;67.21
69980;BME280;57318;56.232;43.944;2022-09-01T04:10:48;98312.66;;;11.46;67.09
69980;BME280;57318;56.232;43.944;2022-09-01T04:13:25;98315.84;;;11.50;66.93
69980;BME280;57318;56.232;43.944;2022-09-01T04:15:52;98316.66;;;11.50;66.83
69980;BME280;57318;56.232;43.944;2022-09-01T04:18:18;98332.31;;;11.53;66.63
69980;BME280;57318;56.232;43.944;2022-09-01T04:20:57;98326.31;;;11.51;66.55
69980;BME280;57318;56.232;43.944;2022-09-01T04:23:30;98323.34;;;11.54;66.52
69980;BME280;57318;56.232;43.944;2022-09-01T04:26:11;98328.00;;;11.52;66.38
69980;BME280;57318;56.232;43.944;2022-09-01T04:28:42;98339.66;;;11.60;66.25
69980;BME280;57318;56.232;43.944;2022-09-01T04:31:12;98325.06;;;11.64;65.64
69980;BME280;57318;56.232;43.944;2022-09-01T04:33:39;98333.41;;;11.69;65.64
69980;BME280;57318;56.232;43.944;2022-09-01T04:36:13;98318.81;;;11.73;63.55
69980;BME280;57318;56.232;43.944;2022-09-01T04:38:39;98330.13;;;11.75;62.90
69980;BME280;57318;56.232;43.944;2022-09-01T04:41:05;98333.91;;;11.72;61.11
69980;BME280;57318;56.232;43.944;2022-09-01T04:43:34;98330.13;;;11.75;60.88
69980;BME280;57318;56.232;43.944;2022-09-01T04:46:01;98325.16;;;11.80;60.87
69980;BME280;57318;56.232;43.944;2022-09-01T04:48:27;98333.53;;;11.85;60.32
69980;BME280;57318;56.232;43.944;2022-09-01T04:50:53;98335.16;;;11.86;60.39
69980;BME280;57318;56.232;43.944;2022-09-01T04:53:20;98333.38;;;11.87;58.89
69980;BME280;57318;56.232;43.944;2022-09-01T04:55:46;98339.06;;;11.92;59.32
69980;BME280;57318;56.232;43.944;2022-09-01T04:58:15;98335.22;;;11.95;59.60
69980;BME280;57318;56.232;43.944;2022-09-01T05:00:47;98349.09;;;11.98;58.99
69980;BME280;57318;56.232;43.944;2022-09-01T05:03:14;98344.91;;;11.96;58.35
69980;BME280;57318;56.232;43.944;2022-09-01T05:05:42;98348.22;;;11.98;57.81
69980;BME280;57318;56.232;43.944;2022-09-01T05:08:11;98356.91;;;12.00;57.30
69980;BME280;57318;56.232;43.944;2022-09-01T05:10:43;98355.75;;;12.02;56.38
69980;BME280;57318;56.232;43.944;2022-09-01T05:13:10;98346.63;;;12.05;56.36
69980;BME280;57318;56.232;43.944;2022-09-01T05:15:40;98352.59;;;12.07;56.66
69980;BME280;57318;56.232;43.944;2022-09-01T05:18:15;98354.13;;;12.09;56.05
69980;BME280;57318;56.232;43.944;2022-09-01T05:20:49;98356.31;;;12.14;56.81
69980;BME280;57318;56.232;43.944;2022-09-01T05:23:16;98357.47;;;12.20;56.78
69980;BME280;57318;56.232;43.944;2022-09-01T05:25:48;98362.00;;;12.27;56.99
69980;BME280;57318;56.232;43.944;2022-09-01T05:28:16;98365.41;;;12.38;56.94
69980;BME280;57318;56.232;43.944;2022-09-01T05:30:45;98376.06;;;12.46;56.57
69980;BME280;57318;56.232;43.944;2022-09-01T05:33:11;98369.44;;;12.50;56.06
69980;BME280;57318;56.232;43.944;2022-09-01T05:35:54;98372.44;;;12.55;54.94
69980;BME280;57318;56.232;43.944;2022-09-01T05:38:21;98370.44;;;12.57;54.38
69980;BME280;57318;56.232;43.944;2022-09-01T05:40:58;98372.78;;;12.60;54.12
69980;BME280;57318;56.232;43.944;2022-09-01T05:43:26;98378.81;;;12.62;52.49
69980;BME280;57318;56.232;43.944;2022-09-01T05:45:56;98366.00;;;12.66;52.35
69980;BME280;57318;56.232;43.944;2022-09-01T05:48:23;98373.00;;;12.67;51.49
69980;BME280;57318;56.232;43.944;2022-09-01T05:50:50;98366.66;;;12.68;51.56
69980;BME280;57318;56.232;43.944;2022-09-01T05:53:18;98361.84;;;12.72;51.31
69980;BME280;57318;56.232;43.944;2022-09-01T05:55:46;98379.81;;;12.78;51.45
69980;BME280;57318;56.232;43.944;2022-09-01T05:58:14;98375.84;;;12.82;51.16
69980;BME280;57318;56.232;43.944;2022-09-01T06:00:45;98362.19;;;12.85;50.86
69980;BME280;57318;56.232;43.944;2022-09-01T06:03:16;98367.84;;;12.90;51.07
69980;BME280;57318;56.232;43.944;2022-09-01T06:05:42;98369.03;;;12.96;51.49
69980;BME280;57318;56.232;43.944;2022-09-01T06:08:10;98377.22;;;13.03;51.29
69980;BME280;57318;56.232;43.944;2022-09-01T06:10:39;98366.88;;;13.08;50.49
69980;BME280;57318;56.232;43.944;2022-09-01T06:13:07;98375.06;;;13.14;51.04
69980;BME280;57318;56.232;43.944;2022-09-01T06:15:35;98364.09;;;13.59;49.84
69980;BME280;57318;56.232;43.944;2022-09-01T06:18:05;98368.63;;;15.55;45.51
69980;BME280;57318;56.232;43.944;2022-09-01T06:20:31;98377.44;;;17.41;41.04
69980;BME280;57318;56.232;43.944;2022-09-01T06:22:57;98376.81;;;18.65;37.94
69980;BME280;57318;56.232;43.944;2022-09-01T06:25:23;98377.69;;;19.81;35.54
69980;BME280;57318;56.232;43.944;2022-09-01T06:27:51;98376.03;;;21.68;33.09
69980;BME280;57318;56.232;43.944;2022-09-01T06:30:18;98375.41;;;22.72;30.29
69980;BME280;57318;56.232;43.944;2022-09-01T06:32:47;98385.44;;;23.86;28.77
69980;BME280;57318;56.232;43.944;2022-09-01T06:35:14;98368.31;;;24.21;28.15
69980;BME280;57318;56.232;43.944;2022-09-01T06:37:41;98383.09;;;24.77;27.15
69980;BME280;57318;56.232;43.944;2022-09-01T06:40:10;98394.34;;;26.06;25.44
69980;BME280;57318;56.232;43.944;2022-09-01T06:42:43;98374.28;;;26.29;25.63
69980;BME280;57318;56.232;43.944;2022-09-01T06:45:10;98390.28;;;26.87;24.14
69980;BME280;57318;56.232;43.944;2022-09-01T06:47:36;98382.22;;;27.84;23.49
69980;BME280;57318;56.232;43.944;2022-09-01T06:50:03;98385.03;;;28.37;22.55
69980;BME280;57318;56.232;43.944;2022-09-01T06:52:29;98390.19;;;28.82;22.63
69980;BME280;57318;56.232;43.944;2022-09-01T06:54:54;98387.34;;;29.65;21.41
69980;BME280;57318;56.232;43.944;2022-09-01T06:57:20;98398.63;;;28.75;21.65
69980;BME280;57318;56.232;43.944;2022-09-01T06:59:52;98393.16;;;27.52;22.70
69980;BME280;57318;56.232;43.944;2022-09-01T07:02:19;98379.81;;;26.57;24.92
69980;BME280;57318;56.232;43.944;2022-09-01T07:04:45;98395.59;;;26.77;24.67
69980;BME280;57318;56.232;43.944;2022-09-01T07:07:11;98393.63;;;26.94;23.89
69980;BME280;57318;56.232;43.944;2022-09-01T07:09:38;98385.28;;;26.79;23.93
69980;BME280;57318;56.232;43.944;2022-09-01T07:12:05;98390.59;;;27.40;23.23
69980;BME280;57318;56.232;43.944;2022-09-01T07:14:31;98397.09;;;27.99;23.01
69980;BME280;57318;56.232;43.944;2022-09-01T07:16:57;98385.56;;;28.34;22.62
69980;BME280;57318;56.232;43.944;2022-09-01T07:19:23;98401.06;;;27.26;23.15
69980;BME280;57318;56.232;43.944;2022-09-01T07:21:51;98399.88;;;26.28;24.52
69980;BME280;57318;56.232;43.944;2022-09-01T07:24:18;98387.22;;;24.92;27.07
69980;BME280;57318;56.232;43.944;2022-09-01T07:26:45;98393.53;;;26.45;24.84
69980;BME280;57318;56.232;43.944;2022-09-01T07:29:17;98387.13;;;27.50;23.16
69980;BME280;57318;56.232;43.944;2022-09-01T07:31:44;98396.44;;;26.77;24.15
69980;BME280;57318;56.232;43.944;2022-09-01T07:34:12;98394.94;;;27.41;23.76
69980;BME280;57318;56.232;43.944;2022-09-01T07:36:40;98400.66;;;28.04;22.31
69980;BME280;57318;56.232;43.944;2022-09-01T07:39:08;98409.81;;;26.01;24.69
69980;BME280;57318;56.232;43.944;2022-09-01T07:41:34;98386.69;;;26.64;24.60
69980;BME280;57318;56.232;43.944;2022-09-01T07:44:02;98397.94;;;27.40;22.90
69980;BME280;57318;56.232;43.944;2022-09-01T07:46:30;98399.34;;;27.42;23.05
69980;BME280;57318;56.232;43.944;2022-09-01T07:48:57;98397.13;;;24.22;26.73
69980;BME280;57318;56.232;43.944;2022-09-01T07:51:24;98402.75;;;21.83;30.69
69980;BME280;57318;56.232;43.944;2022-09-01T07:53:51;98392.00;;;21.44;31.86
69980;BME280;57318;56.232;43.944;2022-09-01T07:56:19;98390.56;;;23.64;28.72
69980;BME280;57318;56.232;43.944;2022-09-01T07:58:46;98387.34;;;25.93;25.67
69980;BME280;57318;56.232;43.944;2022-09-01T08:01:18;98395.75;;;25.92;25.87
69980;BME280;57318;56.232;43.944;2022-09-01T08:03:50;98402.69;;;27.27;23.60
69980;BME280;57318;56.232;43.944;2022-09-01T08:06:19;98388.84;;;25.21;25.99
69980;BME280;57318;56.232;43.944;2022-09-01T08:08:47;98385.72;;;23.12;28.80
69980;BME280;57318;56.232;43.944;2022-09-01T08:11:22;98391.16;;;23.12;29.03
69980;BME280;57318;56.232;43.944;2022-09-01T08:13:50;98400.94;;;25.14;25.76
69980;BME280;57318;56.232;43.944;2022-09-01T08:16:17;98392.22;;;27.14;23.38
69980;BME280;57318;56.232;43.944;2022-09-01T08:18:43;98387.75;;;28.85;21.20
69980;BME280;57318;56.232;43.944;2022-09-01T08:21:11;98387.59;;;30.20;20.20
69980;BME280;57318;56.232;43.944;2022-09-01T08:23:38;98387.50;;;31.17;19.03
69980;BME280;57318;56.232;43.944;2022-09-01T08:26:09;98403.25;;;30.95;18.58
69980;BME280;57318;56.232;43.944;2022-09-01T08:28:35;98395.31;;;30.94;18.93
69980;BME280;57318;56.232;43.944;2022-09-01T08:31:05;98385.50;;;27.86;22.24
69980;BME280;57318;56.232;43.944;2022-09-01T08:33:31;98395.72;;;26.43;24.00
69980;BME280;57318;56.232;43.944;2022-09-01T08:35:59;98384.31;;;26.46;24.05
69980;BME280;57318;56.232;43.944;2022-09-01T08:38:25;98390.31;;;25.92;24.96
69980;BME280;57318;56.232;43.944;2022-09-01T08:40:53;98376.13;;;24.05;26.90
69980;BME280;57318;56.232;43.944;2022-09-01T08:43:36;98382.94;;;22.32;29.58
69980;BME280;57318;56.232;43.944;2022-09-01T08:46:28;98385.66;;;22.32;29.47
69980;BME280;57318;56.232;43.944;2022-09-01T08:48:57;98367.88;;;23.88;27.60
69980;BME280;57318;56.232;43.944;2022-09-01T08:51:37;98379.50;;;24.60;26.58
69980;BME280;57318;56.232;43.944;2022-09-01T08:54:19;98375.84;;;23.71;27.87
69980;BME280;57318;56.232;43.944;2022-09-01T08:56:51;98374.56;;;22.71;29.18
69980;BME280;57318;56.232;43.944;2022-09-01T08:59:19;98378.28;;;22.58;29.18
69980;BME280;57318;56.232;43.944;2022-09-01T09:02:12;98383.19;;;22.98;28.97
69980;BME280;57318;56.232;43.944;2022-09-01T09:10:29;98378.56;;;27.14;22.92
69980;BME280;57318;56.232;43.944;2022-09-01T09:15:48;98391.25;;;27.90;22.65
69980;BME280;57318;56.232;43.944;2022-09-01T09:18:24;98379.34;;;26.82;22.60
69980;BME280;57318;56.232;43.944;2022-09-01T09:20:52;98377.38;;;24.50;25.91
69980;BME280;57318;56.232;43.944;2022-09-01T09:23:32;98382.41;;;22.61;29.09
69980;BME280;57318;56.232;43.944;2022-09-01T09:25:58;98382.06;;;21.70;30.89
69980;BME280;57318;56.232;43.944;2022-09-01T09:28:24;98384.28;;;22.60;29.36
69980;BME280;57318;56.232;43.944;2022-09-01T09:30:49;98382.84;;;21.45;30.93
69980;BME280;57318;56.232;43.944;2022-09-01T09:33:36;98378.09;;;20.63;32.78
69980;BME280;57318;56.232;43.944;2022-09-01T09:36:20;98363.13;;;20.02;33.92
69980;BME280;57318;56.232;43.944;2022-09-01T09:38:46;98371.47;;;19.87;34.66
69980;BME280;57318;56.232;43.944;2022-09-01T09:41:18;98372.66;;;19.98;34.59
69980;BME280;57318;56.232;43.944;2022-09-01T09:44:05;98366.00;;;20.14;34.84
69980;BME280;57318;56.232;43.944;2022-09-01T09:46:40;98385.78;;;23.23;29.21
69980;BME280;57318;56.232;43.944;2022-09-01T09:51:56;98376.00;;;21.49;31.70
69980;BME280;57318;56.232;43.944;2022-09-01T09:54:26;98378.66;;;23.11;29.75
69980;BME280;57318;56.232;43.944;2022-09-01T10:02:32;98382.06;;;29.17;21.10
69980;BME280;57318;56.232;43.944;2022-09-01T10:05:01;98379.97;;;29.97;19.87
69980;BME280;57318;56.232;43.944;2022-09-01T10:07:45;98388.72;;;29.83;19.71
69980;BME280;57318;56.232;43.944;2022-09-01T10:10:34;98387.56;;;30.41;18.79
69980;BME280;57318;56.232;43.944;2022-09-01T10:13:02;98379.41;;;30.05;18.93
69980;BME280;57318;56.232;43.944;2022-09-01T10:15:31;98372.53;;;30.13;18.96
69980;BME280;57318;56.232;43.944;2022-09-01T10:18:08;98379.41;;;30.05;19.02
69980;BME280;57318;56.232;43.944;2022-09-01T10:20:43;98383.78;;;29.75;18.65
69980;BME280;57318;56.232;43.944;2022-09-01T10:23:10;98381.00;;;30.21;17.08
69980;BME280;57318;56.232;43.944;2022-09-01T10:25:36;98382.19;;;30.81;17.37
69980;BME280;57318;56.232;43.944;2022-09-01T10:28:16;98381.31;;;29.27;18.89
69980;BME280;57318;56.232;43.944;2022-09-01T10:30:45;98385.81;;;28.27;20.05
69980;BME280;57318;56.232;43.944;2022-09-01T10:33:14;98380.00;;;25.60;23.22
69980;BME280;57318;56.232;43.944;2022-09-01T10:35:46;98381.56;;;23.93;26.19
69980;BME280;57318;56.232;43.944;2022-09-01T10:38:19;98388.63;;;22.80;28.06
69980;BME280;57318;56.232;43.944;2022-09-01T10:40:47;98378.44;;;23.78;27.27
69980;BME280;57318;56.232;43.944;2022-09-01T10:43:41;98378.72;;;22.74;28.19
69980;BME280;57318;56.232;43.944;2022-09-01T10:46:09;98381.88;;;22.33;29.29
69980;BME280;57318;56.232;43.944;2022-09-01T10:48:42;98378.84;;;22.79;28.31
69980;BME280;57318;56.232;43.944;2022-09-01T10:54:06;98387.22;;;25.09;25.10
69980;BME280;57318;56.232;43.944;2022-09-01T10:56:41;98389.41;;;25.86;24.53
69980;BME280;57318;56.232;43.944;2022-09-01T11:04:07;98388.41;;;28.07;21.10
69980;BME280;57318;56.232;43.944;2022-09-01T11:07:03;98396.91;;;29.63;19.16
69980;BME280;57318;56.232;43.944;2022-09-01T11:09:42;98400.72;;;30.44;18.67
69980;BME280;57318;56.232;43.944;2022-09-01T11:22:41;98394.53;;;28.72;20.07
69980;BME280;57318;56.232;43.944;2022-09-01T11:28:36;98390.91;;;29.35;18.78
69980;BME280;57318;56.232;43.944;2022-09-01T11:33:46;98377.50;;;28.12;20.41
69980;BME280;57318;56.232;43.944;2022-09-01T11:36:44;98402.00;;;28.39;19.86
69980;BME280;57318;56.232;43.944;2022-09-01T11:39:23;98393.44;;;24.63;23.84
69980;BME280;57318;56.232;43.944;2022-09-01T11:41:59;98380.66;;;22.85;26.14
69980;BME280;57318;56.232;43.944;2022-09-01T11:45:03;98387.44;;;24.26;23.99
69980;BME280;57318;56.232;43.944;2022-09-01T11:47:30;98376.50;;;23.43;25.61
69980;BME280;57318;56.232;43.944;2022-09-01T11:50:06;98379.41;;;24.83;24.23
69980;BME280;57318;56.232;43.944;2022-09-01T11:52:37;98386.91;;;23.58;25.24
69980;BME280;57318;56.232;43.944;2022-09-01T11:55:05;98387.88;;;22.73;26.76
69980;BME280;57318;56.232;43.944;2022-09-01T11:57:34;98390.63;;;22.36;27.14
69980;BME280;57318;56.232;43.944;2022-09-01T12:00:05;98391.16;;;25.01;24.49
69980;BME280;57318;56.232;43.944;2022-09-01T12:02:33;98402.56;;;27.12;21.55
69980;BME280;57318;56.232;43.944;2022-09-01T12:05:02;98394.91;;;29.07;18.96
69980;BME280;57318;56.232;43.944;2022-09-01T12:07:39;98404.53;;;30.53;17.56
69980;BME280;57318;56.232;43.944;2022-09-01T12:10:34;98391.97;;;30.42;17.79
69980;BME280;57318;56.232;43.944;2022-09-01T12:13:19;98392.06;;;27.53;19.91
69980;BME280;57318;56.232;43.944;2022-09-01T12:15:55;98401.09;;;28.23;19.60
69980;BME280;57318;56.232;43.944;2022-09-01T12:18:32;98395.94;;;28.90;19.55
69980;BME280;57318;56.232;43.944;2022-09-01T12:21:00;98394.69;;;29.24;19.26
69980;BME280;57318;56.232;43.944;2022-09-01T12:23:33;98408.75;;;30.90;17.40
69980;BME280;57318;56.232;43.944;2022-09-01T12:26:02;98388.88;;;27.61;20.22
69980;BME280;57318;56.232;43.944;2022-09-01T12:28:30;98390.63;;;27.45;20.66
69980;BME280;57318;56.232;43.944;2022-09-01T12:31:05;98400.56;;;27.89;20.95
69980;BME280;57318;56.232;43.944;2022-09-01T12:33:32;98397.78;;;26.58;21.22
69980;BME280;57318;56.232;43.944;2022-09-01T12:36:25;98389.63;;;24.64;23.92
69980;BME280;57318;56.232;43.944;2022-09-01T12:38:56;98394.63;;;24.20;24.64
69980;BME280;57318;56.232;43.944;2022-09-01T12:41:35;98397.38;;;22.63;27.08
69980;BME280;57318;56.232;43.944;2022-09-01T12:44:28;98385.47;;;24.74;24.01
69980;BME280;57318;56.232;43.944;2022-09-01T12:46:55;98401.38;;;26.19;21.81
69980;BME280;57318;56.232;43.944;2022-09-01T12:49:33;98384.75;;;27.04;20.59
69980;BME280;57318;56.232;43.944;2022-09-01T13:02:49;98402.88;;;27.70;20.47
69980;BME280;57318;56.232;43.944;2022-09-01T13:05:24;98408.25;;;28.35;19.86
69980;BME280;57318;56.232;43.944;2022-09-01T13:07:56;98414.75;;;28.76;19.20
69980;BME280;57318;56.232;43.944;2022-09-01T13:10:25;98421.72;;;29.15;19.13
69980;BME280;57318;56.232;43.944;2022-09-01T13:12:53;98422.63;;;28.62;19.03
69980;BME280;57318;56.232;43.944;2022-09-01T13:15:19;98415.13;;;29.06;19.18
69980;BME280;57318;56.232;43.944;2022-09-01T13:17:45;98416.13;;;28.74;19.29
69980;BME280;57318;56.232;43.944;2022-09-01T13:20:12;98408.16;;;26.00;22.01
69980;BME280;57318;56.232;43.944;2022-09-01T13:22:39;98405.38;;;26.73;21.67
69980;BME280;57318;56.232;43.944;2022-09-01T13:25:11;98409.31;;;26.04;22.58
69980;BME280;57318;56.232;43.944;2022-09-01T13:27:38;98402.91;;;24.37;24.50
69980;BME280;57318;56.232;43.944;2022-09-01T13:30:09;98400.25;;;22.99;26.31
69980;BME280;57318;56.232;43.944;2022-09-01T13:32:35;98399.13;;;22.14;27.65
69980;BME280;57318;56.232;43.944;2022-09-01T13:35:01;98403.75;;;21.88;28.34
69980;BME280;57318;56.232;43.944;2022-09-01T13:37:29;98412.31;;;22.04;28.33
69980;BME280;57318;56.232;43.944;2022-09-01T13:39:54;98400.19;;;21.62;28.54
69980;BME280;57318;56.232;43.944;2022-09-01T13:42:20;98396.41;;;21.38;28.52
69980;BME280;57318;56.232;43.944;2022-09-01T13:44:46;98406.78;;;21.03;29.33
69980;BME280;57318;56.232;43.944;2022-09-01T13:47:12;98405.38;;;20.94;29.81
69980;BME280;57318;56.232;43.944;2022-09-01T13:49:38;98398.72;;;20.31;30.64
69980;BME280;57318;56.232;43.944;2022-09-01T13:52:04;98399.44;;;20.06;30.81
69980;BME280;57318;56.232;43.944;2022-09-01T13:54:30;98404.78;;;19.73;31.59
69980;BME280;57318;56.232;43.944;2022-09-01T13:56:55;98406.84;;;19.37;32.65
69980;BME280;57318;56.232;43.944;2022-09-01T13:59:21;98406.19;;;19.22;33.56
69980;BME280;57318;56.232;43.944;2022-09-01T14:01:47;98411.97;;;19.05;33.59